Time;durP1;ratioP1;P1;durP2;ratioP2;P2;SDS_P1;SDS_P2;PMS_P1;PMS_P2;Temp;Humidity;BMP_temperature;BMP_pressure;BME280_temperature;BME280_humidity;BME280_pressure;Samples;Min_cycle;Max_cycle;Signal;HPM_P1;HPM_P2
2022/05/01 00:00:59;;;;;;;0.15;0.15;;;7.00;99.90;;;;;;5026527;28;20045;-69
2022/05/01 00:03:30;;;;;;;0.10;0.10;;;6.90;99.90;;;;;;5023503;28;20037;-70
2022/05/01 00:06:01;;;;;;;0.30;0.30;;;6.90;99.90;;;;;;5022915;28;20860;-69
2022/05/01 00:08:27;;;;;;;5.18;1.63;;;6.80;99.90;;;;;;5022615;28;20049;-69
2022/05/01 00:10:53;;;;;;;0.20;0.20;;;6.80;99.90;;;;;;5022122;28;20580;-69
2022/05/01 00:13:19;;;;;;;0.13;0.13;;;6.80;99.90;;;;;;5014937;28;20122;-69
2022/05/01 00:15:45;;;;;;;0.00;0.00;;;6.80;99.90;;;;;;5026889;28;20481;-70
2022/05/01 00:18:10;;;;;;;0.20;0.20;;;6.80;99.90;;;;;;5025262;28;20041;-70
2022/05/01 00:20:36;;;;;;;0.10;0.10;;;6.70;99.90;;;;;;5017571;28;20045;-70
2022/05/01 00:23:02;;;;;;;0.10;0.10;;;6.70;99.90;;;;;;5021751;28;20045;-69
2022/05/01 00:25:28;;;;;;;0.80;0.68;;;6.70;99.90;;;;;;5025861;28;20053;-69
2022/05/01 00:27:54;;;;;;;1.60;1.10;;;6.60;99.90;;;;;;5018518;28;20041;-69
2022/05/01 00:30:20;;;;;;;0.10;0.10;;;6.60;99.90;;;;;;5022635;28;20079;-69
2022/05/01 00:38:14;;;;;;;0.10;0.10;;;6.50;99.90;;;;;;5012536;28;20516;-69
2022/05/01 00:40:39;;;;;;;0.68;0.68;;;6.50;99.90;;;;;;5012514;28;20046;-69
2022/05/01 00:43:05;;;;;;;0.40;0.40;;;6.50;99.90;;;;;;5026724;28;20033;-69
2022/05/01 00:45:32;;;;;;;0.20;0.20;;;6.50;99.90;;;;;;5013877;28;20397;-69
2022/05/01 00:47:57;;;;;;;0.32;0.32;;;6.50;99.90;;;;;;5024548;28;20390;-69
2022/05/01 00:50:23;;;;;;;0.10;0.10;;;6.50;99.90;;;;;;5025126;28;20048;-69
2022/05/01 00:52:50;;;;;;;1.25;0.85;;;6.40;99.90;;;;;;5024549;28;20112;-69
2022/05/01 00:55:16;;;;;;;0.28;0.28;;;6.40;99.90;;;;;;5020424;28;20550;-69
2022/05/01 00:57:49;;;;;;;0.28;0.28;;;6.40;99.90;;;;;;5017210;28;20054;-69
2022/05/01 01:00:19;;;;;;;0.30;0.30;;;6.40;99.90;;;;;;5012174;28;20041;-69
2022/05/01 01:02:46;;;;;;;1.20;0.73;;;6.40;99.90;;;;;;5024004;28;20042;-69
2022/05/01 01:05:12;;;;;;;0.75;0.75;;;6.40;99.90;;;;;;5020842;28;20132;-69
2022/05/01 01:07:38;;;;;;;0.20;0.20;;;6.30;99.90;;;;;;5012144;28;20096;-69
2022/05/01 01:10:05;;;;;;;0.20;0.20;;;6.20;99.90;;;;;;5027546;28;20492;-69
2022/05/01 01:15:15;;;;;;;0.15;0.15;;;6.20;99.90;;;;;;5026348;28;20607;-69
2022/05/01 01:17:42;;;;;;;0.45;0.45;;;6.20;99.90;;;;;;5016604;28;20045;-69
2022/05/01 01:20:12;;;;;;;1.30;1.20;;;6.20;99.90;;;;;;5023431;28;20053;-69
2022/05/01 01:22:39;;;;;;;0.10;0.10;;;6.20;99.90;;;;;;5012135;28;20056;-69
2022/05/01 01:25:10;;;;;;;0.32;0.32;;;6.30;99.90;;;;;;5029237;28;20080;-69
2022/05/01 01:27:37;;;;;;;0.10;0.10;;;6.20;99.90;;;;;;5019160;28;20049;-69
2022/05/01 01:32:49;;;;;;;0.20;0.20;;;6.20;99.90;;;;;;5026062;28;20409;-69
2022/05/01 01:35:16;;;;;;;0.20;0.20;;;6.10;99.90;;;;;;5029113;28;20061;-69
2022/05/01 01:37:46;;;;;;;4.38;1.02;;;6.10;99.90;;;;;;5014887;28;20111;-69
2022/05/01 01:40:30;;;;;;;2.72;1.13;;;6.20;99.90;;;;;;5016284;28;20030;-69
2022/05/01 01:43:00;;;;;;;0.32;0.32;;;6.20;99.90;;;;;;5020912;28;20680;-69
2022/05/01 01:45:29;;;;;;;1.25;1.17;;;6.10;99.90;;;;;;5027735;28;20417;-69
2022/05/01 01:48:16;;;;;;;0.10;0.10;;;6.10;99.90;;;;;;5015836;28;20472;-69
2022/05/01 01:50:43;;;;;;;0.20;0.20;;;6.10;99.90;;;;;;5021752;28;20046;-71
2022/05/01 01:53:10;;;;;;;0.70;0.70;;;6.10;99.90;;;;;;5021161;28;20041;-70
2022/05/01 01:55:36;;;;;;;0.50;0.50;;;6.10;99.90;;;;;;5028800;28;20046;-71
2022/05/01 01:58:03;;;;;;;0.10;0.10;;;6.10;99.90;;;;;;5029442;28;20135;-71
2022/05/01 02:00:29;;;;;;;1.65;1.55;;;6.00;99.90;;;;;;5023013;28;20038;-70
2022/05/01 02:03:03;;;;;;;0.55;0.55;;;6.10;99.90;;;;;;5028469;28;20099;-70
2022/05/01 02:05:30;;;;;;;0.28;0.28;;;6.10;99.90;;;;;;5015342;28;20389;-71
2022/05/01 02:07:56;;;;;;;0.52;0.52;;;6.10;99.90;;;;;;5023754;28;20049;-71
2022/05/01 02:10:22;;;;;;;0.20;0.20;;;6.10;99.90;;;;;;5019053;28;20103;-71
2022/05/01 02:12:48;;;;;;;0.10;0.10;;;6.10;99.90;;;;;;5021332;28;20037;-71
2022/05/01 02:15:14;;;;;;;0.65;0.65;;;6.10;99.90;;;;;;5026425;28;20051;-71
2022/05/01 02:17:39;;;;;;;3.22;1.60;;;6.10;99.90;;;;;;5016933;28;20049;-71
2022/05/01 02:20:06;;;;;;;0.25;0.25;;;6.00;99.90;;;;;;5021961;28;20084;-70
2022/05/01 02:22:31;;;;;;;0.30;0.30;;;6.00;99.90;;;;;;5024104;28;20552;-71
2022/05/01 02:24:57;;;;;;;0.45;0.45;;;6.00;99.90;;;;;;5026858;28;20124;-71
2022/05/01 02:27:23;;;;;;;1.35;1.25;;;6.00;99.90;;;;;;5023543;28;20072;-71
2022/05/01 02:29:48;;;;;;;0.65;0.65;;;6.00;99.90;;;;;;5024583;28;20057;-70
2022/05/01 02:32:14;;;;;;;0.10;0.10;;;5.90;99.90;;;;;;5012737;28;20123;-71
2022/05/01 02:34:40;;;;;;;0.32;0.32;;;5.80;99.90;;;;;;5025680;28;20795;-71
2022/05/01 02:37:06;;;;;;;0.47;0.47;;;5.90;99.90;;;;;;5021781;28;20041;-71
2022/05/01 02:39:33;;;;;;;1.13;1.13;;;5.90;99.90;;;;;;5016211;28;20046;-71
2022/05/01 02:41:58;;;;;;;0.70;0.70;;;5.80;99.90;;;;;;5027257;28;20056;-71
2022/05/01 02:44:24;;;;;;;0.40;0.40;;;5.80;99.90;;;;;;5025185;28;20045;-70
2022/05/01 02:46:49;;;;;;;0.73;0.73;;;5.80;99.90;;;;;;5019834;28;20045;-70
2022/05/01 02:49:15;;;;;;;0.32;0.30;;;5.80;99.90;;;;;;5023353;28;20049;-70
2022/05/01 02:51:41;;;;;;;0.30;0.30;;;5.80;99.90;;;;;;5017849;28;20041;-70
2022/05/01 02:54:07;;;;;;;0.30;0.30;;;5.70;99.90;;;;;;5023766;28;20451;-70
2022/05/01 02:56:33;;;;;;;0.17;0.17;;;5.80;99.90;;;;;;5028010;28;20072;-70
2022/05/01 02:59:00;;;;;;;2.63;1.27;;;5.80;99.90;;;;;;5017252;28;20048;-70
2022/05/01 03:01:25;;;;;;;0.10;0.10;;;5.70;99.90;;;;;;5012425;28;20054;-70
2022/05/01 03:03:51;;;;;;;2.33;2.10;;;5.70;99.90;;;;;;5022124;28;20527;-70
2022/05/01 03:06:16;;;;;;;0.10;0.10;;;5.70;99.90;;;;;;5021179;28;20033;-70
2022/05/01 03:08:42;;;;;;;0.73;0.73;;;5.70;99.90;;;;;;5017686;28;20550;-70
2022/05/01 03:11:08;;;;;;;0.10;0.10;;;5.60;99.90;;;;;;5019747;28;20127;-70
2022/05/01 03:13:33;;;;;;;0.95;0.95;;;5.50;99.90;;;;;;5019534;28;20077;-71
2022/05/01 03:16:00;;;;;;;0.13;0.13;;;5.50;99.90;;;;;;5027878;28;20088;-70
2022/05/01 03:23:54;;;;;;;0.40;0.40;;;5.50;99.90;;;;;;5019814;28;20488;-70
2022/05/01 03:26:20;;;;;;;1.20;1.20;;;5.40;99.90;;;;;;5025540;28;20045;-70
2022/05/01 03:28:46;;;;;;;0.13;0.13;;;5.40;99.90;;;;;;5022742;28;20049;-70
2022/05/01 03:31:13;;;;;;;0.10;0.10;;;5.40;99.90;;;;;;5023452;28;20125;-70
2022/05/01 03:33:39;;;;;;;0.20;0.20;;;5.40;99.90;;;;;;5013687;28;20049;-70
2022/05/01 03:36:06;;;;;;;0.17;0.17;;;5.40;99.90;;;;;;5026782;28;20116;-70
2022/05/01 03:38:35;;;;;;;0.40;0.40;;;5.40;99.90;;;;;;5012906;28;20052;-70
2022/05/01 03:41:01;;;;;;;0.10;0.10;;;5.30;99.90;;;;;;5022213;28;20164;-70
2022/05/01 03:43:26;;;;;;;0.10;0.10;;;5.40;99.90;;;;;;5013765;28;20058;-70
2022/05/01 03:45:52;;;;;;;0.35;0.35;;;5.30;99.90;;;;;;5026766;28;20056;-70
2022/05/01 03:48:17;;;;;;;0.10;0.10;;;5.30;99.90;;;;;;5017175;28;20042;-70
2022/05/01 03:50:43;;;;;;;0.10;0.10;;;5.20;99.90;;;;;;5020048;28;20039;-70
2022/05/01 03:53:08;;;;;;;1.05;1.05;;;5.20;99.90;;;;;;5016586;28;20498;-70
2022/05/01 03:55:36;;;;;;;0.10;0.10;;;5.20;99.90;;;;;;5020241;28;20053;-67
2022/05/01 03:58:02;;;;;;;0.10;0.10;;;5.20;99.90;;;;;;5016468;28;20545;-68
2022/05/01 04:00:27;;;;;;;1.90;1.25;;;5.20;99.90;;;;;;5014223;28;20149;-68
2022/05/01 04:02:53;;;;;;;0.40;0.40;;;5.20;99.90;;;;;;5028380;28;20075;-69
2022/05/01 04:05:19;;;;;;;0.50;0.50;;;5.20;99.90;;;;;;5019561;28;20045;-69
2022/05/01 04:07:44;;;;;;;0.10;0.10;;;5.10;99.90;;;;;;5012354;28;20113;-69
2022/05/01 04:10:11;;;;;;;2.13;1.98;;;5.10;99.90;;;;;;5025567;28;20049;-69
2022/05/01 04:12:41;;;;;;;0.25;0.25;;;5.10;99.90;;;;;;5012539;28;20057;-68
2022/05/01 04:15:07;;;;;;;0.63;0.63;;;5.10;99.90;;;;;;5018760;28;20521;-69
2022/05/01 04:17:38;;;;;;;2.47;1.45;;;5.10;99.90;;;;;;5019027;28;20120;-68
2022/05/01 04:20:06;;;;;;;0.70;0.70;;;5.10;99.90;;;;;;5018253;28;20041;-68
2022/05/01 04:22:39;;;;;;;0.10;0.10;;;5.10;99.90;;;;;;5011296;28;20092;-69
2022/05/01 04:25:12;;;;;;;0.10;0.10;;;5.10;99.90;;;;;;5021626;28;20046;-68
2022/05/01 04:27:38;;;;;;;1.08;1.05;;;5.00;99.90;;;;;;5022123;28;20768;-69
2022/05/01 04:30:04;;;;;;;0.10;0.10;;;5.00;99.90;;;;;;5016774;28;20051;-68
2022/05/01 04:32:29;;;;;;;0.88;0.82;;;5.00;99.90;;;;;;5018047;28;20053;-69
2022/05/01 04:34:55;;;;;;;0.38;0.38;;;5.10;99.90;;;;;;5011973;28;20045;-69
2022/05/01 04:37:20;;;;;;;0.22;0.22;;;5.10;99.90;;;;;;5021823;28;20052;-69
2022/05/01 04:39:46;;;;;;;0.22;0.22;;;5.10;99.90;;;;;;5017412;28;20116;-69
2022/05/01 04:42:11;;;;;;;0.10;0.10;;;5.10;99.90;;;;;;5020585;28;20038;-69
2022/05/01 04:44:37;;;;;;;2.30;1.35;;;5.10;99.90;;;;;;5026119;28;20041;-69
2022/05/01 04:47:03;;;;;;;1.38;0.95;;;5.20;99.90;;;;;;5031025;28;20049;-69
2022/05/01 04:49:29;;;;;;;0.10;0.10;;;5.20;99.90;;;;;;5029695;28;20033;-69
2022/05/01 04:51:54;;;;;;;3.03;0.68;;;5.20;99.90;;;;;;5020879;28;20144;-68
2022/05/01 04:54:21;;;;;;;7.60;1.85;;;5.20;99.90;;;;;;5016649;28;20051;-68
2022/05/01 04:57:05;;;;;;;0.47;0.47;;;5.30;99.90;;;;;;5029603;28;20041;-68
2022/05/01 04:59:30;;;;;;;0.10;0.10;;;5.40;99.90;;;;;;5028252;28;20071;-68
2022/05/01 05:01:56;;;;;;;0.10;0.10;;;5.40;99.90;;;;;;5016396;28;20048;-68
2022/05/01 05:04:21;;;;;;;0.40;0.40;;;5.40;99.90;;;;;;5026872;28;20037;-69
2022/05/01 05:06:47;;;;;;;0.73;0.73;;;5.50;99.90;;;;;;5024396;28;20050;-69
2022/05/01 05:11:56;;;;;;;1.02;1.02;;;5.60;99.90;;;;;;5026667;28;20186;-68
2022/05/01 05:14:23;;;;;;;0.10;0.10;;;5.60;99.90;;;;;;5020427;28;20485;-68
2022/05/01 05:16:48;;;;;;;0.10;0.10;;;5.70;99.90;;;;;;5020293;28;20080;-69
2022/05/01 05:19:14;;;;;;;0.28;0.28;;;5.70;99.90;;;;;;5017317;28;20042;-68
2022/05/01 05:21:39;;;;;;;0.10;0.10;;;5.80;99.90;;;;;;5026267;28;20091;-69
2022/05/01 05:24:05;;;;;;;0.50;0.50;;;5.90;99.90;;;;;;5026984;28;20064;-68
2022/05/01 05:26:30;;;;;;;0.30;0.30;;;5.90;99.90;;;;;;5016476;28;20088;-69
2022/05/01 05:28:56;;;;;;;0.77;0.57;;;5.90;99.90;;;;;;5022783;28;20103;-69
2022/05/01 05:31:21;;;;;;;0.45;0.45;;;6.00;99.90;;;;;;5028208;28;20045;-69
2022/05/01 05:33:47;;;;;;;1.08;0.57;;;6.10;99.90;;;;;;5011885;28;20053;-69
2022/05/01 05:36:12;;;;;;;0.35;0.35;;;6.20;99.90;;;;;;5029751;28;20046;-68
2022/05/01 05:38:38;;;;;;;0.30;0.30;;;6.30;99.90;;;;;;5030098;28;20049;-69
2022/05/01 05:41:05;;;;;;;0.10;0.10;;;6.40;99.90;;;;;;5028491;28;20042;-68
2022/05/01 05:43:31;;;;;;;0.10;0.10;;;6.50;99.90;;;;;;5018266;28;20048;-69
2022/05/01 05:45:56;;;;;;;0.17;0.17;;;6.50;99.90;;;;;;5027237;28;20128;-69
2022/05/01 05:48:22;;;;;;;0.10;0.10;;;6.60;99.90;;;;;;5029604;28;20489;-69
2022/05/01 05:50:47;;;;;;;0.38;0.38;;;6.70;99.90;;;;;;5024036;28;20083;-68
2022/05/01 05:53:13;;;;;;;1.67;1.08;;;6.80;99.90;;;;;;5023514;28;20049;-68
2022/05/01 05:55:38;;;;;;;1.45;1.02;;;6.90;99.90;;;;;;5012140;28;20054;-69
2022/05/01 05:58:04;;;;;;;0.88;0.85;;;7.00;99.90;;;;;;5026354;28;20081;-68
2022/05/01 06:00:29;;;;;;;0.30;0.30;;;7.10;99.90;;;;;;5011606;28;20145;-68
2022/05/01 06:02:55;;;;;;;0.20;0.20;;;7.10;99.90;;;;;;5018093;28;20451;-68
2022/05/01 06:05:21;;;;;;;0.10;0.10;;;7.10;99.90;;;;;;5019863;28;20046;-68
2022/05/01 06:07:46;;;;;;;0.10;0.10;;;7.20;99.90;;;;;;5028182;28;20041;-68
2022/05/01 06:10:12;;;;;;;0.10;0.10;;;7.30;99.90;;;;;;5021948;28;20132;-68
2022/05/01 06:12:41;;;;;;;0.10;0.10;;;7.30;99.90;;;;;;5012629;28;20091;-69
2022/05/01 06:15:08;;;;;;;0.10;0.10;;;7.40;99.90;;;;;;5025124;28;20095;-69
2022/05/01 06:17:33;;;;;;;0.10;0.10;;;7.40;99.90;;;;;;5020505;28;20043;-68
2022/05/01 06:19:59;;;;;;;0.10;0.10;;;7.50;99.90;;;;;;5016519;28;20045;-69
2022/05/01 06:22:24;;;;;;;0.10;0.10;;;7.50;99.90;;;;;;5014433;28;20041;-69
2022/05/01 06:24:50;;;;;;;0.10;0.10;;;7.60;99.90;;;;;;5024048;28;20570;-69
2022/05/01 06:27:16;;;;;;;1.52;0.68;;;7.70;99.90;;;;;;5020294;28;20045;-69
2022/05/01 06:29:41;;;;;;;0.52;0.52;;;7.70;99.90;;;;;;5009962;28;20042;-69
2022/05/01 06:32:08;;;;;;;0.10;0.10;;;7.80;99.90;;;;;;5027755;28;20045;-69
2022/05/01 06:34:35;;;;;;;0.40;0.40;;;7.90;99.90;;;;;;5028820;28;20505;-69
2022/05/01 06:37:00;;;;;;;0.10;0.10;;;7.90;99.90;;;;;;5021070;28;20417;-69
2022/05/01 06:39:26;;;;;;;0.10;0.10;;;8.00;99.90;;;;;;5015724;28;20050;-68
2022/05/01 06:41:53;;;;;;;0.10;0.10;;;8.10;99.90;;;;;;5010503;28;20038;-68
2022/05/01 06:44:19;;;;;;;0.10;0.10;;;8.10;99.90;;;;;;5026157;28;20049;-69
2022/05/01 06:46:44;;;;;;;0.10;0.10;;;8.20;99.90;;;;;;5017587;28;20065;-68
2022/05/01 06:49:11;;;;;;;0.10;0.10;;;8.20;99.90;;;;;;5022276;28;20045;-69
2022/05/01 06:51:36;;;;;;;0.10;0.10;;;8.40;99.90;;;;;;5025848;28;20046;-68
2022/05/01 06:54:03;;;;;;;0.40;0.40;;;8.40;99.90;;;;;;5022221;28;20056;-69
2022/05/01 06:56:28;;;;;;;0.10;0.10;;;8.40;99.90;;;;;;5016571;28;20050;-69
2022/05/01 06:58:54;;;;;;;0.10;0.10;;;8.40;99.90;;;;;;5017731;28;20104;-68
2022/05/01 07:01:19;;;;;;;0.10;0.10;;;8.50;99.90;;;;;;5015239;28;20553;-69
2022/05/01 07:03:46;;;;;;;0.10;0.10;;;8.50;99.90;;;;;;5020679;28;20159;-69
2022/05/01 07:06:12;;;;;;;0.10;0.10;;;8.60;99.90;;;;;;5026153;28;20114;-69
2022/05/01 07:08:37;;;;;;;0.10;0.10;;;8.60;99.90;;;;;;5020175;28;20068;-69
2022/05/01 07:11:03;;;;;;;0.10;0.10;;;8.60;99.90;;;;;;5018108;28;20069;-68
2022/05/01 07:13:29;;;;;;;1.00;0.73;;;8.70;99.90;;;;;;5027788;28;20123;-69
2022/05/01 07:15:54;;;;;;;0.10;0.10;;;8.70;99.90;;;;;;5026110;28;20512;-69
2022/05/01 07:18:20;;;;;;;0.20;0.20;;;8.80;99.90;;;;;;5023560;28;20045;-69
2022/05/01 07:20:47;;;;;;;0.10;0.10;;;8.90;99.90;;;;;;5022293;28;20141;-69
2022/05/01 07:23:12;;;;;;;0.47;0.47;;;8.90;99.90;;;;;;5026197;28;20060;-69
2022/05/01 07:25:38;;;;;;;0.10;0.10;;;9.00;99.90;;;;;;5019660;28;20045;-68
2022/05/01 07:28:04;;;;;;;0.10;0.10;;;9.00;99.90;;;;;;5027458;28;20109;-69
2022/05/01 07:30:29;;;;;;;0.10;0.10;;;9.10;99.90;;;;;;5027531;28;20099;-68
2022/05/01 07:32:55;;;;;;;4.05;2.38;;;9.20;99.90;;;;;;5021001;28;20124;-68
2022/05/01 07:35:20;;;;;;;0.30;0.30;;;9.30;99.90;;;;;;5017874;28;20073;-68
2022/05/01 07:37:46;;;;;;;0.10;0.10;;;9.40;99.90;;;;;;5008129;28;20088;-68
2022/05/01 07:40:12;;;;;;;1.00;0.63;;;9.50;99.90;;;;;;5025888;28;20046;-68
2022/05/01 07:42:37;;;;;;;0.10;0.10;;;9.60;99.90;;;;;;5017989;28;20088;-68
2022/05/01 07:45:03;;;;;;;0.10;0.10;;;9.70;99.90;;;;;;5009051;28;20069;-67
2022/05/01 07:47:29;;;;;;;0.17;0.17;;;9.70;99.90;;;;;;5007417;28;20088;-68
2022/05/01 07:49:54;;;;;;;0.17;0.17;;;9.80;99.90;;;;;;5009238;28;20084;-68
2022/05/01 07:52:20;;;;;;;0.10;0.10;;;9.90;99.90;;;;;;5007121;28;20056;-68
2022/05/01 07:54:45;;;;;;;0.10;0.10;;;10.00;99.90;;;;;;5018616;28;20045;-68
2022/05/01 07:57:11;;;;;;;0.10;0.10;;;10.10;99.90;;;;;;5010025;28;20041;-68
2022/05/01 07:59:36;;;;;;;0.10;0.10;;;10.10;99.90;;;;;;5009477;28;20049;-68
2022/05/01 08:02:02;;;;;;;0.10;0.10;;;10.10;99.90;;;;;;5009307;28;20092;-68
2022/05/01 08:04:28;;;;;;;0.20;0.20;;;10.20;99.90;;;;;;5023661;28;20532;-68
2022/05/01 08:06:57;;;;;;;0.45;0.45;;;10.20;99.90;;;;;;5009343;28;20046;-68
2022/05/01 08:09:23;;;;;;;0.00;0.00;;;10.20;99.90;;;;;;5008516;28;20125;-68
2022/05/01 08:11:51;;;;;;;0.10;0.10;;;10.20;99.90;;;;;;5022770;28;20132;-68
2022/05/01 08:14:17;;;;;;;1.55;1.45;;;10.20;99.90;;;;;;5019337;28;20071;-68
2022/05/01 08:16:43;;;;;;;0.10;0.10;;;10.30;99.90;;;;;;5010775;28;20050;-68
2022/05/01 08:21:53;;;;;;;1.50;1.40;;;10.30;99.90;;;;;;5011541;28;20111;-68
2022/05/01 08:24:19;;;;;;;0.43;0.43;;;10.30;99.90;;;;;;5023091;28;20046;-68
2022/05/01 08:26:48;;;;;;;1.65;0.82;;;10.40;99.90;;;;;;5015367;28;20045;-68
2022/05/01 08:29:15;;;;;;;0.10;0.10;;;10.50;99.90;;;;;;5007814;28;20500;-68
2022/05/01 08:31:42;;;;;;;0.10;0.10;;;10.50;99.90;;;;;;5020207;28;20046;-68
2022/05/01 08:34:08;;;;;;;0.10;0.10;;;10.50;99.90;;;;;;5026296;28;20447;-68
2022/05/01 08:36:34;;;;;;;0.32;0.32;;;10.50;99.90;;;;;;5016311;28;20058;-68
2022/05/01 08:38:59;;;;;;;1.00;1.00;;;10.60;99.90;;;;;;5024496;28;20042;-68
2022/05/01 08:41:29;;;;;;;0.10;0.10;;;10.50;99.90;;;;;;5008273;28;20103;-68
2022/05/01 08:43:56;;;;;;;0.10;0.10;;;10.60;99.90;;;;;;5007996;28;20554;-68
2022/05/01 08:46:27;;;;;;;0.10;0.10;;;10.60;99.90;;;;;;5017351;28;20443;-68
2022/05/01 08:49:03;;;;;;;0.90;0.90;;;10.60;99.90;;;;;;5020061;28;20041;-68
2022/05/01 08:51:32;;;;;;;0.00;0.00;;;10.60;99.90;;;;;;5023905;28;20057;-68
2022/05/01 08:53:58;;;;;;;0.10;0.10;;;10.70;99.90;;;;;;5018526;28;20053;-68
2022/05/01 08:56:25;;;;;;;0.17;0.17;;;10.70;99.90;;;;;;5014262;28;20042;-68
2022/05/01 08:58:51;;;;;;;0.10;0.10;;;10.70;99.90;;;;;;5016356;28;20129;-68
2022/05/01 09:01:18;;;;;;;0.10;0.10;;;10.80;99.90;;;;;;5017527;28;20045;-68
2022/05/01 09:03:44;;;;;;;0.10;0.10;;;10.90;99.90;;;;;;5025002;28;20060;-68
2022/05/01 09:06:11;;;;;;;0.10;0.10;;;11.20;99.90;;;;;;5013019;28;20167;-69
2022/05/01 09:08:40;;;;;;;0.10;0.10;;;11.20;99.90;;;;;;5024691;28;20082;-68
2022/05/01 09:13:51;;;;;;;1.45;1.35;;;11.30;99.90;;;;;;5021145;28;20084;-68
2022/05/01 09:16:17;;;;;;;0.00;0.00;;;11.40;99.90;;;;;;5026401;28;20396;-68
2022/05/01 09:18:44;;;;;;;0.43;0.43;;;11.40;99.90;;;;;;5013507;28;20034;-69
2022/05/01 09:21:10;;;;;;;0.10;0.10;;;11.50;99.90;;;;;;5023740;28;20096;-68
2022/05/01 09:23:43;;;;;;;0.08;0.08;;;11.70;99.90;;;;;;5027071;28;20045;-68
2022/05/01 09:26:10;;;;;;;0.10;0.10;;;12.00;99.90;;;;;;5025905;28;20072;-68
2022/05/01 09:28:37;;;;;;;0.10;0.10;;;12.40;99.90;;;;;;5008259;28;20057;-68
2022/05/01 09:31:03;;;;;;;0.43;0.32;;;12.60;99.90;;;;;;5017620;28;20037;-69
2022/05/01 09:33:29;;;;;;;0.10;0.10;;;13.00;99.90;;;;;;5018311;28;20099;-69
2022/05/01 09:35:55;;;;;;;0.20;0.20;;;13.50;99.90;;;;;;5029978;28;20057;-69
2022/05/01 09:38:23;;;;;;;0.00;0.00;;;13.60;99.00;;;;;;5028802;28;20440;-69
2022/05/01 09:40:55;;;;;;;0.30;0.30;;;13.90;97.90;;;;;;5022810;28;20398;-68
2022/05/01 09:43:37;;;;;;;0.10;0.10;;;13.90;98.40;;;;;;5016905;28;20104;-69
2022/05/01 09:46:25;;;;;;;0.10;0.10;;;14.40;98.60;;;;;;5018973;28;20046;-69
2022/05/01 09:49:07;;;;;;;0.10;0.10;;;14.60;99.30;;;;;;5011088;28;20767;-69
2022/05/01 09:51:46;;;;;;;0.10;0.10;;;14.70;98.50;;;;;;5010831;28;20056;-69
2022/05/01 09:54:27;;;;;;;0.10;0.10;;;14.30;96.50;;;;;;5008261;28;20132;-69
2022/05/01 09:57:00;;;;;;;0.10;0.10;;;13.80;97.50;;;;;;5011480;28;20069;-69
2022/05/01 09:59:28;;;;;;;0.00;0.00;;;13.80;99.50;;;;;;5025383;28;20102;-69
2022/05/01 10:01:58;;;;;;;0.10;0.10;;;13.80;98.20;;;;;;5029555;28;20068;-69
2022/05/01 10:04:24;;;;;;;0.63;0.63;;;13.60;98.00;;;;;;5029883;28;20041;-69
2022/05/01 10:06:54;;;;;;;0.10;0.10;;;13.50;99.00;;;;;;5009855;28;20401;-70
2022/05/01 10:09:24;;;;;;;0.20;0.20;;;13.50;98.40;;;;;;5009799;28;20613;-70
2022/05/01 10:11:57;;;;;;;0.10;0.10;;;13.40;98.60;;;;;;5010792;28;20073;-69
2022/05/01 10:14:24;;;;;;;0.10;0.10;;;13.50;99.20;;;;;;5017669;28;20042;-70
2022/05/01 10:16:50;;;;;;;0.20;0.20;;;13.70;99.50;;;;;;5014670;28;20038;-69
2022/05/01 10:19:18;;;;;;;0.10;0.10;;;14.30;98.70;;;;;;5027855;28;20062;-70
2022/05/01 10:21:52;;;;;;;0.00;0.00;;;14.50;97.80;;;;;;5009255;28;20084;-69
2022/05/01 10:24:19;;;;;;;0.77;0.77;;;14.80;97.60;;;;;;5010953;28;20088;-69
2022/05/01 10:27:29;;;;;;;0.20;0.20;;;15.20;97.80;;;;;;5009529;28;20045;-68
2022/05/01 10:33:07;;;;;;;0.10;0.10;;;15.20;95.90;;;;;;5010123;28;20060;-69
2022/05/01 10:36:08;;;;;;;0.25;0.25;;;15.20;96.10;;;;;;5016014;28;20045;-69
2022/05/01 10:39:02;;;;;;;2.08;1.38;;;15.20;96.70;;;;;;5022114;28;20045;-69
2022/05/01 10:41:28;;;;;;;4.35;1.35;;;15.40;96.20;;;;;;5008786;28;20390;-69
2022/05/01 10:43:56;;;;;;;0.08;0.08;;;15.10;95.50;;;;;;5009789;28;20054;-69
2022/05/01 10:46:22;;;;;;;0.10;0.10;;;15.10;95.70;;;;;;5017211;28;20049;-69
2022/05/01 10:48:48;;;;;;;0.20;0.20;;;15.10;94.60;;;;;;5009394;28;20459;-69
2022/05/01 10:51:31;;;;;;;0.00;0.00;;;15.10;96.00;;;;;;5024679;28;20112;-69
2022/05/01 10:54:13;;;;;;;0.40;0.40;;;15.30;97.50;;;;;;5010928;28;20413;-69
2022/05/01 10:56:40;;;;;;;0.20;0.20;;;15.40;94.90;;;;;;5008128;28;20068;-69
2022/05/01 10:59:34;;;;;;;0.30;0.30;;;15.60;96.50;;;;;;5009681;28;20045;-69
2022/05/01 11:02:03;;;;;;;0.52;0.52;;;15.90;94.60;;;;;;5010149;28;20054;-69
2022/05/01 11:04:30;;;;;;;3.83;1.25;;;16.10;95.00;;;;;;5012715;28;20045;-69
2022/05/01 11:06:57;;;;;;;0.35;0.35;;;15.80;94.90;;;;;;5023492;28;20037;-69
2022/05/01 11:09:24;;;;;;;0.15;0.15;;;15.80;95.20;;;;;;5023274;28;20038;-70
2022/05/01 11:11:55;;;;;;;0.25;0.25;;;15.90;96.10;;;;;;5016582;28;20054;-69
2022/05/01 11:14:41;;;;;;;0.10;0.10;;;15.90;95.20;;;;;;5011629;28;20519;-69
2022/05/01 11:17:08;;;;;;;0.22;0.22;;;16.00;95.30;;;;;;5008787;28;20049;-69
2022/05/01 11:19:50;;;;;;;0.43;0.43;;;15.80;95.70;;;;;;5023771;28;20622;-69
2022/05/01 11:22:25;;;;;;;1.48;1.38;;;15.40;94.60;;;;;;5016882;28;20045;-69
2022/05/01 11:24:50;;;;;;;0.22;0.22;;;15.20;95.20;;;;;;5008740;28;20644;-69
2022/05/01 11:27:17;;;;;;;0.30;0.30;;;15.00;95.30;;;;;;5017956;28;20045;-68
2022/05/01 11:30:08;;;;;;;2.38;0.75;;;14.70;94.90;;;;;;5008427;28;20042;-68
2022/05/01 11:32:44;;;;;;;0.20;0.20;;;14.60;95.50;;;;;;5026033;28;20049;-68
2022/05/01 11:35:11;;;;;;;0.10;0.10;;;15.10;96.30;;;;;;5012786;28;20046;-68
2022/05/01 11:38:06;;;;;;;0.00;0.00;;;15.20;97.00;;;;;;5008246;28;20057;-69
2022/05/01 11:40:32;;;;;;;0.08;0.08;;;14.90;95.90;;;;;;5028212;28;20048;-69
2022/05/01 11:43:18;;;;;;;0.20;0.20;;;14.70;95.40;;;;;;5027387;28;20045;-69
2022/05/01 11:45:47;;;;;;;0.10;0.10;;;15.30;95.70;;;;;;5009644;28;20057;-69
2022/05/01 11:48:15;;;;;;;0.20;0.20;;;15.50;95.20;;;;;;5008324;28;20736;-69
2022/05/01 11:50:42;;;;;;;0.20;0.20;;;15.70;94.90;;;;;;5026112;28;20037;-69
2022/05/01 11:53:29;;;;;;;0.15;0.15;;;15.90;94.60;;;;;;5027380;28;20085;-69
2022/05/01 12:04:29;;;;;;;0.05;0.05;;;17.20;94.50;;;;;;5028869;28;20052;-69
2022/05/01 12:07:18;;;;;;;0.20;0.20;;;17.30;93.40;;;;;;5020327;28;20060;-69
2022/05/01 12:09:46;;;;;;;0.38;0.38;;;17.30;94.10;;;;;;5008525;28;20044;-69
2022/05/01 12:12:17;;;;;;;0.10;0.10;;;17.30;92.50;;;;;;5013793;28;20050;-69
2022/05/01 12:14:43;;;;;;;0.10;0.10;;;17.60;92.80;;;;;;5008408;28;20456;-69
2022/05/01 12:17:14;;;;;;;0.28;0.28;;;17.60;93.10;;;;;;5008458;28;20456;-69
2022/05/01 12:19:50;;;;;;;0.45;0.45;;;17.30;91.90;;;;;;5017661;28;20068;-70
2022/05/01 12:22:20;;;;;;;0.15;0.15;;;17.80;93.30;;;;;;5008033;28;20533;-69
2022/05/01 12:24:47;;;;;;;0.10;0.10;;;18.00;92.20;;;;;;5013647;28;20451;-69
2022/05/01 12:27:14;;;;;;;0.08;0.08;;;18.20;92.70;;;;;;5018737;28;20103;-69
2022/05/01 12:29:47;;;;;;;0.00;0.00;;;18.40;92.90;;;;;;5018005;28;20190;-68
2022/05/01 12:32:14;;;;;;;0.00;0.00;;;18.30;92.50;;;;;;5026518;28;20045;-69
2022/05/01 12:34:49;;;;;;;0.10;0.10;;;18.40;91.90;;;;;;5020325;28;20073;-68
2022/05/01 12:37:20;;;;;;;0.08;0.08;;;18.60;93.30;;;;;;5016491;28;20077;-68
2022/05/01 12:40:02;;;;;;;0.10;0.10;;;18.70;92.50;;;;;;5017250;28;20630;-68
2022/05/01 12:45:20;;;;;;;0.10;0.10;;;18.60;90.70;;;;;;5008047;28;20466;-69
2022/05/01 12:47:51;;;;;;;0.10;0.10;;;18.60;90.40;;;;;;5007338;28;20034;-69
2022/05/01 12:50:20;;;;;;;0.43;0.43;;;18.60;91.00;;;;;;5024423;28;20446;-69
2022/05/01 12:52:50;;;;;;;0.00;0.00;;;18.80;91.30;;;;;;5026818;28;20056;-69
2022/05/01 12:55:18;;;;;;;0.45;0.30;;;18.60;90.10;;;;;;5024292;28;20108;-69
2022/05/01 12:57:52;;;;;;;0.10;0.10;;;19.10;90.70;;;;;;5016821;28;20408;-69
2022/05/01 13:00:37;;;;;;;0.00;0.00;;;19.20;91.00;;;;;;5008758;28;20506;-69
2022/05/01 13:03:19;;;;;;;0.10;0.10;;;18.50;89.40;;;;;;5015146;28;20045;-69
2022/05/01 13:05:56;;;;;;;0.70;0.70;;;18.50;91.30;;;;;;5011327;28;21038;-71
2022/05/01 13:08:22;;;;;;;0.10;0.10;;;18.20;90.30;;;;;;5011964;28;20108;-70
2022/05/01 13:11:26;;;;;;;0.45;0.45;;;17.80;90.20;;;;;;5020427;28;20054;-69
2022/05/01 13:14:03;;;;;;;0.10;0.10;;;17.70;91.50;;;;;;5025881;28;20042;-69
2022/05/01 13:16:32;;;;;;;0.03;0.03;;;17.40;90.80;;;;;;5028722;28;20052;-69
2022/05/01 13:19:09;;;;;;;0.10;0.10;;;16.80;91.30;;;;;;5029132;28;20046;-69
2022/05/01 13:21:38;;;;;;;0.25;0.25;;;16.70;91.40;;;;;;5011009;28;20058;-68
2022/05/01 13:24:32;;;;;;;0.35;0.30;;;16.60;91.20;;;;;;5017516;28;20057;-69
2022/05/01 13:27:04;;;;;;;0.20;0.20;;;16.50;91.00;;;;;;5031117;28;20060;-69
2022/05/01 13:29:31;;;;;;;0.00;0.00;;;16.30;92.10;;;;;;5031279;28;20412;-69
2022/05/01 13:32:03;;;;;;;0.00;0.00;;;16.10;90.80;;;;;;5028739;28;20187;-69
2022/05/01 13:34:28;;;;;;;0.08;0.08;;;16.30;92.50;;;;;;5012649;28;20046;-69
2022/05/01 13:36:54;;;;;;;0.17;0.17;;;16.30;92.30;;;;;;5027972;28;20049;-69
2022/05/01 13:39:20;;;;;;;2.08;0.30;;;16.10;90.70;;;;;;5011402;28;20038;-68